Flight Track Log - Related Links

Times and Time Zones

All times are in EDT time to prevent confusion due to time zone crossing. See the EJA727 flight status page for this flight to view local times or setup timezone preferences in your user account.

Time Position Orientation Groundspeed Altitude Reporting Facility
EDT Latitude Longitude Course Direction KTS MPH feet Rate Location/Type
Wed 02:38:22 PM 40.8000 -73.1833 288° West 195 224 3,600  Level New York TRACON
Wed 02:39:22 PM 40.8167 -73.2500 288° West 197 227 7,600 3,600 Climbing New York TRACON
Wed 02:40:22 PM 40.8500 -73.3167 303° West 259 298 10,800 2,905 Climbing New York TRACON
Wed 02:41:28 PM 40.9167 -73.4167 303° West 325 374 13,700 2,700 Climbing New York TRACON
Wed 02:42:22 PM 40.9667 -73.5000 308° West 337 388 16,200 1,737 Climbing New York TRACON
Wed 02:43:22 PM 41.0000 -73.6333 288° West 379 436 17,000 400 Climbing New York TRACON
Wed 02:44:22 PM 41.0167 -73.7667 279° West 385 443 17,000  Level New York TRACON
Wed 02:46:03 PM 41.0467 -74.0011 280° West 415 478 17,000  Level New York Center
Wed 02:47:04 PM 41.0642 -74.1203 281° West 385 443 17,000  Level New York Center
Wed 02:48:04 PM 41.0806 -74.2669 278° West 375 432 17,000  Level New York Center
Wed 02:49:03 PM 41.0978 -74.3889 281° West 370 426 17,000  Level New York Center
Wed 02:50:03 PM 41.1161 -74.5386 279° West 375 432 17,000  Level New York Center
Wed 02:51:04 PM 41.1331 -74.6581 281° West 369 425 17,000 393 Level New York Center
Wed 02:52:05 PM 41.1806 -74.7958 295° West 369 425 17,800 1,438 Climbing New York Center
Wed 02:53:05 PM 41.2306 -74.9147 299° West 374 430 19,900 2,050 Climbing New York Center
Wed 02:54:05 PM 41.2883 -75.0425 301° West 387 445 21,900 2,186 Climbing New York Center
Wed 02:55:03 PM 41.3422 -75.1703 299° West 392 451 24,200 2,186 Climbing New York Center
Wed 02:56:03 PM 41.3978 -75.2983 300° West 399 459 26,200 1,707 Climbing New York Center
Wed 02:57:06 PM 41.4531 -75.4294 299° West 404 465 27,700 1,300 Climbing New York Center
Wed 02:58:03 PM 41.5014 -75.5711 295° West 414 476 28,800 1,119 Climbing New York Center
Wed 02:59:04 PM 41.5453 -75.7186 292° West 425 489 29,900 1,082 Climbing New York Center
Wed 03:00:05 PM 41.5869 -75.8686 290° West 431 496 31,000 1,182 Climbing New York Center
Wed 03:01:16 PM 41.6394 -76.0475 291° West 431 496 32,500 1,333 Climbing New York Center
Wed 03:02:47 PM 41.6972 -76.2611 290° West 416 479 34,600 1,311 Climbing Cleveland Center
Wed 03:03:47 PM 41.7381 -76.4058 291° West 416 479 35,800 1,300 Climbing Cleveland Center
Wed 03:04:47 PM 41.7786 -76.5508 291° West 421 484 37,200 1,100 Climbing Cleveland Center
Wed 03:05:47 PM 41.8169 -76.6933 290° West 421 484 38,000 400 Climbing Cleveland Center
Wed 03:06:47 PM 41.8575 -76.8442 290° West 421 484 38,000  Level Cleveland Center
Wed 03:07:47 PM 41.8997 -76.9897 291° West 421 484 38,000  Level Cleveland Center
Wed 03:08:47 PM 41.9378 -77.1411 289° West 421 484 38,000 300 Level Cleveland Center
Wed 03:09:47 PM 41.9794 -77.2897 291° West 421 484 38,600 800 Climbing Cleveland Center
Wed 03:10:47 PM 42.0192 -77.4386 290° West 421 484 39,600 700 Climbing Cleveland Center
Wed 03:11:47 PM 42.0564 -77.5822 289° West 421 484 40,000 200 Climbing Cleveland Center
Wed 03:12:47 PM 42.0978 -77.7314 291° West 421 484 40,000  Level Cleveland Center
Wed 03:13:47 PM 42.1367 -77.8839 289° West 421 484 40,000  Level Cleveland Center
Wed 03:14:47 PM 42.1756 -78.0306 290° West 421 484 40,000  Level Cleveland Center
Wed 03:15:47 PM 42.2142 -78.1833 289° West 421 484 40,000  Level Cleveland Center
Wed 03:16:47 PM 42.2528 -78.3333 289° West 421 484 40,000  Level Cleveland Center
Wed 03:17:47 PM 42.2911 -78.4808 289° West 421 484 40,000  Level Cleveland Center
Wed 03:18:47 PM 42.3311 -78.6311 290° West 421 484 40,000  Level Cleveland Center
Wed 03:19:47 PM 42.3692 -78.7844 289° West 421 484 40,000  Level Cleveland Center
Wed 03:20:47 PM 42.4067 -78.9325 289° West 421 484 40,000  Level Cleveland Center
Wed 03:21:47 PM 42.4442 -79.0864 288° West 421 484 40,000  Level Cleveland Center
Wed 03:22:47 PM 42.4836 -79.2403 289° West 421 484 40,000  Level Cleveland Center
Wed 03:23:47 PM 42.4958 -79.3978 276° West 421 484 40,000  Level Cleveland Center
Wed 03:24:47 PM 42.5081 -79.5750 275° West 426 490 40,000  Level Cleveland Center
Wed 03:25:47 PM 42.5133 -79.7353 273° West 426 490 40,000  Level Cleveland Center
Wed 03:26:47 PM 42.5250 -79.8958 276° West 426 490 40,000  Level Cleveland Center
Wed 03:27:47 PM 42.5278 -80.0478 271° West 437 503 40,000  Level Cleveland Center
Wed 03:28:47 PM 42.5347 -80.2083 273° West 445 512 40,000  Level Cleveland Center
Wed 03:29:47 PM 42.5392 -80.3719 272° West 437 503 40,000  Level Cleveland Center
Wed 03:30:47 PM 42.5478 -80.5408 274° West 437 503 40,000  Level Cleveland Center
Wed 03:31:47 PM 42.5539 -80.7044 273° West 442 509 40,000  Level Cleveland Center
Wed 03:32:47 PM 42.5600 -80.8678 273° West 442 509 40,000  Level Cleveland Center
Wed 03:33:47 PM 42.5656 -81.0342 273° West 442 509 40,000  Level Cleveland Center
Wed 03:34:47 PM 42.5731 -81.2147 273° West 442 509 40,000  Level Cleveland Center
Wed 03:35:47 PM 42.5783 -81.3839 272° West 448 516 40,000  Level Cleveland Center
Wed 03:37:00 PM 42.5992 -81.5641 269° West  Level FlightAware Approximate
Wed 03:37:47 PM 42.6194 -81.7117 269° West 446 513 40,000  Level Cleveland Center
Wed 03:38:47 PM 42.6156 -81.8781 268° West 446 513 40,000  Level Cleveland Center
Wed 03:39:47 PM 42.6117 -82.0133 268° West 441 507 40,000  Level Cleveland Center
Wed 03:40:47 PM 42.6092 -82.2108 269° West 441 507 40,000  Level Cleveland Center
Wed 03:41:47 PM 42.6067 -82.3772 269° West 441 507 40,000  Level Cleveland Center
Wed 03:42:47 PM 42.6019 -82.5464 268° West 441 507 40,000  Level Cleveland Center
Wed 03:43:47 PM 42.5989 -82.7183 269° West 446 513 40,000  Level Cleveland Center
Wed 03:44:47 PM 42.5933 -82.8875 268° West 446 513 40,000 -450 Level Cleveland Center
Wed 03:45:47 PM 42.5897 -83.0622 268° West 458 527 39,100 -1,450 Descending Cleveland Center
Wed 03:46:47 PM 42.5861 -83.2342 268° West 463 533 37,100 -2,000 Descending Cleveland Center
Wed 03:47:47 PM 42.5817 -83.4117 268° West 468 539 35,100 -1,550 Descending Cleveland Center
Wed 03:48:47 PM 42.5731 -83.5917 266° West 473 544 34,000 -550 Descending Cleveland Center
Wed 03:49:47 PM 42.5681 -83.7719 268° West 478 550 34,000 -600 Level Cleveland Center
Wed 03:50:47 PM 42.5633 -83.9464 268° West 478 550 32,800 -1,550 Descending Cleveland Center
Wed 03:51:47 PM 42.5558 -84.1236 267° West 478 550 30,900 -1,400 Descending Cleveland Center
Wed 03:52:47 PM 42.5481 -84.3008 267° West 473 544 30,000 -551 Descending Cleveland Center
Wed 03:53:25 PM 42.5456 -84.4097 268° West 472 543 30,000  Level Chicago Center
Wed 03:54:27 PM 42.5383 -84.5900 267° West 476 548 30,000  Level Chicago Center
Wed 03:55:30 PM 42.5303 -84.7719 267° West 482 555 30,000  Level Chicago Center
Wed 03:56:32 PM 42.5228 -84.9544 267° West 483 556 30,000  Level Chicago Center
Wed 03:57:34 PM 42.5150 -85.1364 267° West 484 557 30,000 -968 Level Chicago Center
Wed 03:58:36 PM 42.5061 -85.3197 266° West 487 560 28,000 -2,129 Descending Chicago Center
Wed 03:59:38 PM 42.4958 -85.5425 266° West 493 567 25,600 -2,177 Descending Chicago Center
Wed 04:00:40 PM 42.4875 -85.7178 266° West 471 542 23,500 -1,935 Descending Chicago Center
Wed 04:01:42 PM 42.4775 -85.8833 265° West 446 513 21,600 -1,694 Descending Chicago Center
Wed 04:02:44 PM 42.4703 -86.0356 266° West 410 472 20,000 -1,536 Descending Chicago Center
Wed 04:03:47 PM 42.4603 -86.1906 265° West 410 472 18,400 -1,536 Descending Chicago Center
Wed 04:04:49 PM 42.4528 -86.3392 266° West 397 457 16,800 -1,645 Descending Chicago Center
Wed 04:05:51 PM 42.4458 -86.4783 266° West 377 434 15,000 -1,984 Descending Chicago Center
Wed 04:06:53 PM 42.4356 -86.6467 265° West 374 430 12,700 -2,032 Descending Chicago Center
Wed 04:07:55 PM 42.4306 -86.7853 267° West 371 427 10,800 -1,452 Descending Chicago Center
Wed 04:08:57 PM 42.4228 -86.9172 265° West 360 414 9,700 -1,452 Descending Chicago Center
Wed 04:09:59 PM 42.4167 -87.0272 266° West 312 359 7,800 -1,839 Descending Chicago Center
Wed 04:11:01 PM 42.4075 -87.1350 263° West 295 339 5,900 -1,790 Descending Chicago Center
Wed 04:12:03 PM 42.4017 -87.2389 266° West 282 325 4,100 -912 Descending Chicago Center
Wed 04:13:06 PM 42.3914 -87.3594 263° West 273 314 4,000 -48 Descending Chicago Center
Wed 04:14:08 PM 42.3650 -87.4414 246° West 263 303 4,000  Level Chicago Center
Wed 04:15:10 PM 42.3367 -87.5350 248° West 255 293 4,000  Level Chicago Center
Wed 04:16:12 PM 42.3111 -87.6217 248° West 253 291 4,000  Level Chicago Center
Wed 04:17:14 PM 42.2900 -87.7089 252° West 251 289 4,000 -387 Level Chicago Center
Wed 04:18:16 PM 42.2833 -87.8194 265° West 251 289 3,200 -532 Descending Chicago Center
Wed 04:19:18 PM 42.2772 -87.8956 264° West 235 270 2,900 -145 Descending Chicago Center
Wed 04:20:20 PM 42.2536 -87.9647 245° Southwest 215 247 2,900  Level Chicago Center
Wed 04:21:22 PM 42.2328 -88.0344 248° West 206 237 2,900  Level Chicago Center
Wed 04:22:25 PM 42.1997 -88.0942 233° Southwest 208 239 2,900  Level Chicago Center
Wed 04:23:27 PM 42.1519 -88.1586 225° Southwest 206 237 2,900  Level Chicago Center
Wed 04:24:29 PM 42.1111 -88.2111 224° Southwest 205 236 2,900  Level Chicago Center
Wed 04:25:31 PM 42.0692 -88.2644 223° Southwest 206 237 2,900  Level Chicago Center
Wed 04:26:33 PM 42.0300 -88.3153 224° Southwest 204 235 2,900  Level Chicago Center
Wed 04:27:35 PM 41.9692 -88.3472 201° Southwest 209 241 2,900  Level Chicago Center
Wed 04:28:37 PM 41.9106 -88.3531 184° South 212 244 2,900 -242 Level Chicago Center
Wed 04:29:39 PM 41.8542 -88.3558 182° South 209 241 2,400 -387 Descending Chicago Center
Wed 04:30:41 PM 41.8014 -88.3619 185° South 201 231 2,100 -387 Descending Chicago Center
Wed 04:31:43 PM 41.7706 -88.4017 224° Southwest 175 201 1,600 -624 Descending Chicago Center
Wed 04:32:46 PM 41.7694 -88.4603 269° West 143 165 800 -762 Descending Chicago Center
Wed 04:34:00 PM 41.7667 -88.4667 228° Southwest  Level FlightAware Approximate

Login

Don't have an account? Register now (free) for customized features, flight alerts, and more!